createdAt,value
2019-04-16T04:24:46.860Z,52.10
2019-04-16T04:27:18.652Z,52.30
2019-04-16T04:29:46.261Z,52.20
2019-04-16T04:32:13.402Z,52.40
2019-04-16T04:34:40.964Z,51.90
2019-04-16T04:37:08.683Z,51.50
2019-04-16T04:39:36.471Z,50.80
2019-04-16T04:42:04.267Z,50.60
2019-04-16T04:44:33.577Z,50.40
2019-04-16T04:47:01.447Z,50.40
2019-04-16T04:49:30.413Z,50.00
2019-04-16T04:51:58.580Z,50.00
2019-04-16T04:54:26.275Z,50.20
2019-04-16T04:56:56.335Z,49.40
2019-04-16T04:59:23.373Z,49.10
2019-04-16T05:01:50.981Z,49.20
2019-04-16T05:04:38.301Z,49.10
2019-04-16T05:07:06.603Z,49.10
2019-04-16T05:09:36.493Z,48.90
2019-04-16T05:12:03.556Z,48.90
2019-04-16T05:14:31.211Z,48.60
2019-04-16T05:16:58.890Z,48.20
2019-04-16T05:19:26.666Z,47.60
2019-04-16T05:21:54.405Z,47.50
2019-04-16T05:24:22.076Z,47.00
2019-04-16T05:26:49.833Z,46.70
2019-04-16T05:29:18.682Z,46.30
2019-04-16T05:31:46.422Z,46.50
2019-04-16T05:34:17.450Z,46.40
2019-04-16T05:36:46.936Z,46.00
2019-04-16T05:39:13.347Z,44.60
2019-04-16T05:41:41.023Z,44.30
2019-04-16T05:44:09.197Z,43.50
2019-04-16T05:46:38.370Z,42.10
2019-04-16T05:49:06.735Z,41.90
2019-04-16T05:51:34.541Z,42.00
2019-04-16T05:54:41.440Z,40.80
2019-04-16T05:57:11.120Z,41.90
2019-04-16T05:59:38.826Z,40.80
2019-04-16T06:02:15.207Z,40.50
2019-04-16T06:04:43.122Z,39.90
2019-04-16T06:07:10.905Z,40.10
2019-04-16T06:09:41.287Z,39.90
2019-04-16T06:12:08.925Z,39.10
2019-04-16T06:14:42.394Z,38.50
2019-04-16T06:17:31.843Z,38.30
2019-04-16T06:20:19.013Z,38.10
2019-04-16T06:23:02.047Z,38.30
2019-04-16T06:25:43.173Z,37.80
2019-04-16T06:28:28.826Z,36.90
2019-04-16T06:31:10.036Z,36.70
2019-04-16T06:34:04.576Z,36.50
2019-04-16T06:36:54.838Z,36.10
2019-04-16T06:39:35.300Z,35.70
2019-04-16T06:42:25.122Z,35.00
2019-04-16T06:44:57.682Z,35.10
2019-04-16T06:47:47.709Z,33.90
2019-04-16T06:50:40.611Z,34.10
2019-04-16T06:53:25.057Z,34.20
2019-04-16T06:56:12.463Z,33.50
2019-04-16T06:59:02.575Z,33.00
2019-04-16T07:01:47.917Z,32.00
2019-04-16T07:04:22.634Z,30.90
2019-04-16T07:07:09.236Z,29.70
2019-04-16T07:09:42.217Z,30.40
2019-04-16T07:12:15.562Z,30.00
2019-04-16T07:14:45.617Z,29.70
2019-04-16T07:17:21.437Z,29.90
2019-04-16T07:19:57.467Z,29.60
2019-04-16T07:22:28.914Z,29.40
2019-04-16T07:25:05.823Z,29.30
2019-04-16T07:28:29.604Z,29.10
2019-04-16T07:31:33.249Z,29.40
2019-04-16T07:34:30.991Z,28.80
2019-04-16T07:37:23.754Z,29.20
2019-04-16T07:40:10.475Z,28.70
2019-04-16T07:43:09.943Z,27.80
2019-04-16T07:45:51.871Z,28.20
2019-04-16T07:48:55.355Z,27.70
2019-04-16T07:51:45.906Z,28.10
2019-04-16T07:54:38.942Z,28.50
2019-04-16T07:57:06.686Z,28.20
2019-04-16T07:59:34.437Z,27.60
2019-04-16T08:02:02.431Z,27.50
2019-04-16T08:04:35.412Z,27.30
2019-04-16T08:06:59.668Z,27.30
2019-04-16T08:09:29.834Z,27.60
2019-04-16T08:11:56.831Z,27.80
2019-04-16T08:14:24.381Z,27.40
2019-04-16T08:16:51.966Z,27.70
2019-04-16T08:19:19.604Z,27.70
2019-04-16T08:21:47.293Z,28.00
2019-04-16T08:24:24.375Z,27.40
2019-04-16T08:26:49.248Z,27.30
2019-04-16T08:29:16.949Z,27.10
2019-04-16T08:31:46.316Z,27.30
2019-04-16T08:34:13.995Z,27.80
2019-04-16T08:36:41.636Z,27.60
2019-04-16T08:39:11.408Z,26.90
2019-04-16T08:41:40.602Z,26.00
2019-04-16T08:44:10.384Z,26.20
2019-04-16T08:46:40.111Z,26.70
2019-04-16T08:49:08.686Z,26.80
2019-04-16T08:51:37.817Z,26.30
2019-04-16T08:54:05.689Z,26.50
2019-04-16T08:56:33.448Z,26.70
2019-04-16T08:59:01.776Z,27.10
2019-04-16T09:01:31.169Z,27.40
2019-04-16T09:04:02.464Z,26.80
2019-04-16T09:06:29.719Z,27.10
2019-04-16T09:09:18.365Z,27.20
2019-04-16T09:11:48.755Z,27.10
2019-04-16T09:14:20.256Z,26.20
2019-04-16T09:17:05.940Z,26.50
2019-04-16T09:19:36.825Z,27.10
2019-04-16T09:22:04.535Z,26.60
2019-04-16T09:24:41.482Z,26.40
2019-04-16T09:27:14.221Z,25.70
2019-04-16T09:30:10.287Z,25.10
2019-04-16T09:32:43.672Z,25.30
2019-04-16T09:35:39.594Z,25.50
2019-04-16T09:38:38.614Z,25.90
2019-04-16T09:41:31.616Z,25.00
2019-04-16T09:44:00.062Z,24.70
2019-04-16T09:46:49.758Z,25.20
2019-04-16T09:48:58.049Z,25.40
2019-04-16T09:51:27.042Z,25.00
2019-04-16T09:53:55.023Z,25.20
2019-04-16T09:56:39.740Z,25.10
2019-04-16T09:59:26.588Z,26.10
2019-04-16T10:02:05.669Z,25.30
2019-04-16T10:04:34.381Z,24.90
2019-04-16T10:07:02.226Z,25.20
2019-04-16T10:09:40.968Z,25.60
2019-04-16T10:12:08.815Z,25.70
2019-04-16T10:14:38.888Z,25.70
2019-04-16T10:17:12.640Z,25.70
2019-04-16T10:19:43.259Z,25.70
2019-04-16T10:22:14.172Z,25.50
2019-04-16T10:25:10.295Z,25.70
2019-04-16T10:27:39.754Z,25.50
2019-04-16T10:30:26.037Z,25.90
2019-04-16T10:32:54.493Z,25.90
2019-04-16T10:35:24.660Z,25.90
2019-04-16T10:37:52.762Z,25.40
2019-04-16T10:40:40.036Z,25.90
2019-04-16T10:43:43.888Z,25.50
2019-04-16T10:46:20.143Z,25.90
2019-04-16T10:48:52.864Z,25.80
2019-04-16T10:51:27.042Z,25.40
2019-04-16T10:54:03.324Z,25.40
2019-04-16T10:56:48.988Z,25.40
2019-04-16T10:59:35.885Z,25.60
2019-04-16T11:02:32.292Z,26.00
2019-04-16T11:05:20.060Z,25.90
2019-04-16T11:07:48.747Z,25.80
2019-04-16T11:10:17.035Z,25.30
2019-04-16T11:12:45.212Z,25.50
2019-04-16T11:15:22.728Z,25.20
2019-04-16T11:17:51.808Z,25.20
2019-04-16T11:20:23.433Z,25.70
2019-04-16T11:22:51.467Z,25.40
2019-04-16T11:25:19.649Z,25.50
2019-04-16T11:27:47.538Z,25.70
2019-04-16T11:30:36.244Z,25.80
2019-04-16T11:33:04.629Z,25.60
2019-04-16T11:35:32.762Z,25.60
2019-04-16T11:38:01.085Z,25.90
2019-04-16T11:40:40.732Z,25.50
2019-04-16T11:43:07.467Z,25.80
2019-04-16T11:45:35.492Z,25.90
2019-04-16T11:48:03.262Z,25.90
2019-04-16T11:50:31.538Z,26.40
2019-04-16T11:53:00.263Z,26.20
2019-04-16T11:55:28.187Z,26.20
2019-04-16T11:57:55.977Z,26.70
2019-04-16T12:00:37.170Z,26.50
2019-04-16T12:03:26.037Z,26.50
2019-04-16T12:06:27.789Z,26.90
2019-04-16T12:09:20.036Z,27.30
2019-04-16T12:11:55.451Z,27.20
2019-04-16T12:14:45.458Z,27.50
2019-04-16T12:17:36.230Z,28.10
2019-04-16T12:20:21.288Z,28.40
2019-04-16T12:23:07.573Z,28.30
2019-04-16T12:25:54.659Z,28.60
2019-04-16T12:28:47.512Z,28.70
2019-04-16T12:31:21.590Z,28.70
2019-04-16T12:34:06.321Z,28.90
2019-04-16T12:36:56.034Z,29.30
2019-04-16T12:39:41.246Z,29.60
2019-04-16T12:42:28.568Z,29.70
2019-04-16T12:45:17.190Z,29.90
2019-04-16T12:47:58.703Z,29.90
2019-04-16T12:50:42.040Z,30.10
2019-04-16T12:53:21.892Z,30.40
2019-04-16T12:56:09.102Z,30.80
2019-04-16T12:58:54.780Z,30.90
2019-04-16T13:01:47.123Z,31.20
2019-04-16T13:04:25.977Z,31.00
2019-04-16T13:07:01.760Z,30.60
2019-04-16T13:09:59.127Z,30.70
2019-04-16T13:12:37.867Z,31.00
2019-04-16T13:15:25.422Z,31.20
2019-04-16T13:18:10.779Z,32.10
2019-04-16T13:20:57.539Z,33.30
2019-04-16T13:23:47.597Z,34.60
2019-04-16T13:26:37.825Z,36.10
2019-04-16T13:29:09.931Z,37.90
2019-04-16T13:31:38.990Z,42.60
2019-04-16T13:34:08.939Z,46.60
2019-04-16T13:36:37.010Z,48.60
2019-04-16T13:39:32.458Z,50.50
2019-04-16T13:42:00.341Z,52.00
2019-04-16T13:44:31.722Z,53.40
2019-04-16T13:47:03.083Z,53.70
2019-04-16T13:50:03.548Z,55.50
2019-04-16T13:52:31.255Z,56.00
2019-04-16T13:55:14.042Z,57.10
2019-04-16T13:57:48.837Z,58.50
2019-04-16T14:00:25.002Z,59.20
2019-04-16T14:02:58.642Z,58.40
2019-04-16T14:05:26.457Z,59.10
2019-04-16T14:07:54.340Z,59.80
2019-04-16T14:10:22.471Z,60.60
2019-04-16T14:12:50.181Z,60.90
2019-04-16T14:15:31.199Z,60.80
2019-04-16T14:17:52.860Z,62.00
2019-04-16T14:20:18.621Z,62.30
2019-04-16T14:22:46.468Z,62.20
2019-04-16T14:25:14.414Z,62.10
2019-04-16T14:27:42.281Z,62.70
2019-04-16T14:30:17.255Z,62.70
2019-04-16T14:32:45.145Z,63.40
2019-04-16T14:35:32.313Z,63.60
2019-04-16T14:37:50.231Z,65.10
2019-04-16T14:40:25.412Z,69.80
2019-04-16T14:42:57.536Z,70.60
2019-04-16T14:45:58.193Z,72.90
2019-04-16T14:48:18.990Z,72.90
2019-04-16T14:50:47.095Z,72.50
2019-04-16T14:53:34.561Z,72.20
2019-04-16T14:56:11.938Z,71.70
2019-04-16T14:59:01.899Z,69.40
2019-04-16T15:01:44.256Z,69.40
2019-04-16T15:04:24.296Z,70.70
2019-04-16T15:07:20.549Z,70.60
2019-04-16T15:10:19.707Z,71.50
2019-04-16T15:13:09.758Z,72.20
2019-04-16T15:15:40.936Z,72.70
2019-04-16T15:18:27.027Z,72.20
2019-04-16T15:21:12.703Z,74.80
2019-04-16T15:24:08.736Z,74.70
2019-04-16T15:26:56.128Z,74.10
2019-04-16T15:29:45.967Z,74.50
2019-04-16T15:32:51.293Z,74.80
2019-04-16T15:35:27.914Z,74.90
2019-04-16T15:38:07.277Z,75.10
2019-04-16T15:40:40.349Z,71.40
2019-04-16T15:43:26.066Z,68.90
2019-04-16T15:46:26.057Z,68.60
2019-04-16T15:49:05.218Z,69.00
2019-04-16T15:51:50.636Z,68.20
2019-04-16T15:54:33.316Z,68.90
2019-04-16T15:57:21.136Z,68.40
2019-04-16T15:59:58.795Z,67.40
2019-04-16T16:02:39.573Z,67.10
2019-04-16T16:05:22.747Z,68.10
2019-04-16T16:08:08.402Z,66.80
2019-04-16T16:10:49.768Z,66.80
2019-04-16T16:13:17.553Z,67.80
2019-04-16T16:15:46.448Z,68.20
2019-04-16T16:18:14.191Z,68.70
2019-04-16T16:20:42.001Z,69.00
2019-04-16T16:23:09.737Z,69.50
2019-04-16T16:25:41.121Z,69.60
2019-04-16T16:28:07.511Z,69.20
2019-04-16T16:30:35.315Z,69.90
2019-04-16T16:33:03.279Z,70.50
2019-04-16T16:35:34.615Z,71.40
2019-04-16T16:38:01.298Z,71.10
2019-04-16T16:40:29.153Z,71.30
2019-04-16T16:42:57.241Z,71.40
2019-04-16T16:45:39.915Z,72.10
2019-04-16T16:48:07.890Z,71.90
2019-04-16T16:50:35.714Z,71.60
2019-04-16T16:53:14.287Z,72.00
2019-04-16T16:55:51.242Z,72.40
2019-04-16T16:58:39.006Z,72.90
2019-04-16T17:01:24.197Z,73.20
2019-04-16T17:04:14.312Z,73.70
2019-04-16T17:06:42.211Z,74.10
2019-04-16T17:09:19.750Z,74.30
2019-04-16T17:11:47.530Z,75.00
2019-04-16T17:14:15.318Z,75.10
2019-04-16T17:16:44.714Z,75.60
2019-04-16T17:19:12.461Z,75.00
2019-04-16T17:21:40.367Z,75.00
2019-04-16T17:24:08.136Z,75.30
2019-04-16T17:26:35.985Z,74.60
2019-04-16T17:29:03.991Z,74.70
2019-04-16T17:31:31.838Z,75.30
2019-04-16T17:34:00.195Z,75.20
2019-04-16T17:36:28.133Z,74.80
2019-04-16T17:38:55.953Z,73.30
2019-04-16T17:41:28.986Z,73.90
2019-04-16T17:44:03.822Z,74.30
2019-04-16T17:46:49.393Z,74.00
2019-04-16T17:49:36.761Z,74.20
2019-04-16T17:52:22.590Z,74.70
2019-04-16T17:55:09.783Z,74.70
2019-04-16T17:57:58.737Z,74.40
2019-04-16T18:00:54.901Z,74.10
2019-04-16T18:03:40.551Z,74.40
2019-04-16T18:06:27.751Z,75.10
2019-04-16T18:09:23.798Z,73.60
2019-04-16T18:12:12.261Z,73.10
2019-04-16T18:15:17.666Z,72.30
2019-04-16T18:18:01.589Z,72.70
2019-04-16T18:20:58.689Z,73.00
2019-04-16T18:23:30.623Z,74.10
2019-04-16T18:26:32.512Z,73.90
2019-04-16T18:29:08.322Z,73.70
2019-04-16T18:32:07.513Z,73.90
2019-04-16T18:35:00.299Z,74.40
2019-04-16T18:37:53.117Z,71.30
2019-04-16T18:40:37.996Z,72.90
2019-04-16T18:43:28.386Z,73.70
2019-04-16T18:46:15.240Z,73.70
2019-04-16T18:48:44.816Z,74.00
2019-04-16T18:51:14.488Z,73.20
2019-04-16T18:53:43.384Z,72.60
2019-04-16T18:56:12.094Z,70.30
2019-04-16T18:58:41.847Z,70.90
2019-04-16T19:01:13.666Z,69.90
2019-04-16T19:03:41.401Z,69.00
2019-04-16T19:06:09.502Z,69.00
2019-04-16T19:08:42.013Z,69.40
2019-04-16T19:11:06.932Z,70.20
2019-04-16T19:13:34.930Z,71.10
2019-04-16T19:16:02.799Z,70.90
2019-04-16T19:18:30.674Z,71.00
2019-04-16T19:20:58.432Z,71.60
2019-04-16T19:23:26.256Z,71.30
2019-04-16T19:25:55.429Z,69.90
2019-04-16T19:28:24.517Z,69.40
2019-04-16T19:30:52.783Z,69.90
2019-04-16T19:33:21.574Z,67.00
2019-04-16T19:35:51.949Z,66.20
2019-04-16T19:38:19.144Z,66.30
2019-04-16T19:40:47.761Z,65.00
2019-04-16T19:43:16.692Z,64.50
2019-04-16T19:45:46.892Z,65.40
2019-04-16T19:48:17.689Z,65.30
2019-04-16T19:50:44.514Z,65.20
2019-04-16T19:53:14.976Z,65.30
2019-04-16T19:55:45.609Z,65.50
2019-04-16T19:58:11.819Z,66.00
2019-04-16T20:00:39.661Z,66.00
2019-04-16T20:03:09.182Z,66.50
2019-04-16T20:05:36.979Z,66.80
2019-04-16T20:08:04.801Z,64.30
2019-04-16T20:10:32.548Z,64.50
2019-04-16T20:13:00.344Z,64.00
2019-04-16T20:15:28.226Z,64.10
2019-04-16T20:17:56.075Z,64.20
2019-04-16T20:20:24.211Z,64.10
2019-04-16T20:22:52.011Z,63.70
2019-04-16T20:25:19.868Z,64.30
2019-04-16T20:27:47.718Z,64.00
2019-04-16T20:30:15.505Z,63.50
2019-04-16T20:32:43.216Z,63.50
2019-04-16T20:35:11.116Z,63.70
2019-04-16T20:37:39.569Z,63.10
2019-04-16T20:40:08.094Z,63.20
2019-04-16T20:42:35.957Z,62.20
2019-04-16T20:45:03.979Z,61.80
2019-04-16T20:47:31.790Z,62.10
2019-04-16T20:50:03.522Z,61.90
2019-04-16T20:52:30.873Z,61.30
2019-04-16T20:55:00.044Z,61.20
2019-04-16T20:57:28.014Z,61.10
2019-04-16T20:59:55.819Z,61.30
2019-04-16T21:02:24.210Z,61.80
2019-04-16T21:04:51.980Z,61.00
2019-04-16T21:07:19.795Z,61.70
2019-04-16T21:09:50.358Z,61.00
2019-04-16T21:12:18.270Z,61.10
2019-04-16T21:14:46.248Z,60.70
2019-04-16T21:17:13.983Z,60.80
2019-04-16T21:19:46.497Z,60.80
2019-04-16T21:22:16.082Z,60.00
2019-04-16T21:24:44.739Z,60.20
2019-04-16T21:27:12.929Z,60.10
2019-04-16T21:29:41.196Z,60.40
2019-04-16T21:32:16.710Z,60.00
2019-04-16T21:34:50.728Z,59.80
2019-04-16T21:37:40.566Z,60.00
2019-04-16T21:40:09.437Z,59.60
2019-04-16T21:42:37.216Z,59.40
2019-04-16T21:45:05.551Z,59.50
2019-04-16T21:47:33.156Z,59.30
2019-04-16T21:50:01.291Z,58.70
2019-04-16T21:52:29.410Z,58.00
2019-04-16T21:55:03.004Z,57.70
2019-04-16T21:57:27.985Z,57.30
2019-04-16T21:59:58.152Z,57.80
2019-04-16T22:02:37.970Z,57.50
2019-04-16T22:05:07.974Z,57.20
2019-04-16T22:07:35.646Z,57.90
2019-04-16T22:10:04.005Z,57.80
2019-04-16T22:12:32.138Z,57.80
2019-04-16T22:15:00.005Z,58.40
2019-04-16T22:17:27.630Z,58.30
2019-04-16T22:20:01.325Z,57.40
2019-04-16T22:22:27.613Z,57.50
2019-04-16T22:24:54.942Z,58.00
2019-04-16T22:27:23.348Z,57.90
2019-04-16T22:29:51.193Z,57.80
2019-04-16T22:32:19.063Z,57.70
2019-04-16T22:34:46.777Z,57.90
2019-04-16T22:37:14.844Z,57.60
2019-04-16T22:39:51.242Z,57.50
2019-04-16T22:42:30.610Z,57.50
2019-04-16T22:45:13.106Z,57.40
2019-04-16T22:47:41.032Z,58.00
2019-04-16T22:50:16.077Z,58.10
2019-04-16T22:52:38.499Z,57.80
2019-04-16T22:55:06.267Z,58.00
2019-04-16T22:57:34.023Z,58.30
2019-04-16T23:00:01.881Z,58.60
2019-04-16T23:02:30.205Z,58.30
2019-04-16T23:04:59.939Z,58.60
2019-04-16T23:07:27.642Z,58.10
2019-04-16T23:09:55.368Z,57.70
2019-04-16T23:12:27.225Z,57.90
2019-04-16T23:14:52.578Z,57.70
2019-04-16T23:17:23.870Z,57.90
2019-04-16T23:19:51.729Z,57.90
2019-04-16T23:22:19.578Z,57.80
2019-04-16T23:24:47.217Z,57.90
2019-04-16T23:27:14.929Z,58.10
2019-04-16T23:29:47.287Z,58.10
2019-04-16T23:32:12.272Z,57.50
2019-04-16T23:34:39.991Z,57.80
2019-04-16T23:37:08.712Z,57.60
2019-04-16T23:39:37.589Z,58.10
2019-04-16T23:42:05.285Z,57.80
2019-04-16T23:44:51.374Z,57.60
2019-04-16T23:47:39.394Z,57.60
2019-04-16T23:50:26.719Z,57.70
2019-04-16T23:53:28.834Z,57.30
2019-04-16T23:56:17.709Z,57.60
2019-04-16T23:58:49.242Z,57.50
